Whidbey Island Naval Air Station, WA

7:32 AM PST on February 27, 2015 (GMT -0800)
Western Village | Change Station
CLOSE
Current Station
Personal Weather Station
Location: Oak Harbor, WA
Elevation: 72 ft
Nearby Weather Stations

Elev 72 ft 48.30 °N, 122.66 °W | Updated 22 seconds ago

Rain
Rain
45.3 °F
Feels Like 45 °F
N
1.1
Wind Variable Wind from WSW
Gusts 1.1 mph

Today
High -- | Low -- °F
--% Chance of Precip.
Yesterday
High -- | Low -- °F
Precip. -- in
6:55 AM 5:51 PM
Waxing Gibbous, 69% visible
Pressure 29.78 in
Visibility 10.0 miles
Clouds Scattered Clouds 2000 ft
Mostly Cloudy 3500 ft
Overcast 4500 ft
Windchill 45 °F
Dew Point 45 °F
Humidity 98%
Rainfall 0.58 in
Snow Depth Not available.
UV 0 out of 12
Pollen 7.70 out of 12
Air Quality Not available.
Flu Activity Not available.
METAR KNUW 271456Z 36004KT 10SM -RA SCT020 BKN035 OVC045 08/07 A2976 RMK AO2 SLP083 P0002 60008 T00830067 57001 VISNO E $

More Conditions Fewer Conditions

Pressure 29.78 in
Visibility 10.0 miles
Clouds Scattered Clouds 2000 ft
Mostly Cloudy 3500 ft
Overcast 4500 ft
Windchill 45 °F
Dew Point 45 °F
Humidity 98%
Rainfall 0.58 in
Snow Depth Not available.
UV 0 out of 12
Pollen 7.70 out of 12
Air Quality Not available.
Flu Activity Not available.
METAR KNUW 271456Z 36004KT 10SM -RA SCT020 BKN035 OVC045 08/07 A2976 RMK AO2 SLP083 P0002 60008 T00830067 57001 VISNO E $

More Conditions Fewer Conditions

10-Day Weather Forecast

Almanac

Astronomy

Feb. 27, 2015 Rise Set
Actual Time
Civil Twilight
Nautical Twilight
Astronomical Twilight
Moon
Length of Visible Light
Length of Day
Tomorrow will be .
, % of the Moon is Illuminated

Today's Extremes

State Highs State Lows

Community

WunderPhotos

Upload Photos

1,800,699 photos uploaded!

WunderBlogs® & News

Nearby

Air Quality

  Air Quality AQ Index Pollutant
Not available.

Snow Depth

Station Depth Elevation

Earthquake Activity

City Distance Mag. Time & Date
Minimum magnitude displayed is 2.5.

Coastal Water Temperatures

Place Temperature

Nearby Weather Stations